createdAt,value
2022-11-28T00:01:19.090Z,100.00
2022-11-28T00:03:45.577Z,100.00
2022-11-28T00:06:12.352Z,99.25
2022-11-28T00:08:38.875Z,99.13
2022-11-28T00:11:08.532Z,99.22
2022-11-28T00:13:36.150Z,99.68
2022-11-28T00:16:04.966Z,99.63
2022-11-28T00:18:31.613Z,100.00
2022-11-28T00:21:10.074Z,99.94
2022-11-28T00:23:36.524Z,100.00
2022-11-28T00:26:11.655Z,100.00
2022-11-28T00:28:38.288Z,99.99
2022-11-28T00:31:05.070Z,100.00
2022-11-28T00:33:33.088Z,100.00
2022-11-28T00:36:05.882Z,99.92
2022-11-28T00:38:32.279Z,100.00
2022-11-28T00:40:59.731Z,99.94
2022-11-28T00:43:26.224Z,100.00
2022-11-28T00:45:52.674Z,99.88
2022-11-28T00:48:19.493Z,99.93
2022-11-28T00:50:46.342Z,99.81
2022-11-28T00:53:12.849Z,99.57
2022-11-28T00:55:39.982Z,99.69
2022-11-28T00:58:07.028Z,99.69
2022-11-28T01:00:34.139Z,99.32
2022-11-28T01:03:00.572Z,99.25
2022-11-28T01:05:27.000Z,99.19
2022-11-28T01:07:53.655Z,99.48
2022-11-28T01:10:21.263Z,99.29
2022-11-28T01:12:47.872Z,99.54
2022-11-28T01:15:14.492Z,99.88
2022-11-28T01:17:41.921Z,100.00
2022-11-28T01:20:09.281Z,100.00
2022-11-28T01:22:35.726Z,100.00
2022-11-28T01:25:02.161Z,100.00
2022-11-28T01:27:28.602Z,100.00
2022-11-28T01:29:55.214Z,100.00
2022-11-28T01:32:21.641Z,99.52
2022-11-28T01:34:48.069Z,100.00
2022-11-28T01:37:14.559Z,100.00
2022-11-28T01:39:40.990Z,100.00
2022-11-28T01:42:07.401Z,100.00
2022-11-28T01:44:33.851Z,100.00
2022-11-28T01:47:00.289Z,100.00
2022-11-28T01:49:34.612Z,100.00
2022-11-28T01:52:20.083Z,100.00
2022-11-28T01:54:52.249Z,100.00
2022-11-28T01:57:22.320Z,100.00
2022-11-28T01:59:58.242Z,100.00
2022-11-28T02:02:34.722Z,100.00
2022-11-28T02:05:01.294Z,100.00
2022-11-28T02:07:27.811Z,100.00
2022-11-28T02:09:54.837Z,100.00
2022-11-28T02:12:46.277Z,100.00
2022-11-28T02:15:25.408Z,100.00
2022-11-28T02:18:25.780Z,100.00
2022-11-28T02:21:04.473Z,100.00
2022-11-28T02:23:56.527Z,100.00
2022-11-28T02:26:58.472Z,100.00
2022-11-28T02:29:38.703Z,100.00
2022-11-28T02:32:25.030Z,100.00
2022-11-28T02:35:22.224Z,100.00
2022-11-28T02:38:11.561Z,100.00
2022-11-28T02:40:53.266Z,100.00
2022-11-28T02:43:33.255Z,100.00
2022-11-28T02:46:17.175Z,100.00
2022-11-28T02:49:04.408Z,100.00
2022-11-28T02:51:52.770Z,100.00
2022-11-28T02:54:21.057Z,100.00
2022-11-28T02:56:52.757Z,100.00
2022-11-28T02:59:31.316Z,100.00
2022-11-28T03:01:58.982Z,100.00
2022-11-28T03:05:02.789Z,100.00
2022-11-28T03:08:14.218Z,100.00
2022-11-28T03:10:59.228Z,100.00
2022-11-28T03:13:41.765Z,100.00
2022-11-28T03:16:22.622Z,100.00
2022-11-28T03:19:16.413Z,100.00
2022-11-28T03:21:50.933Z,100.00
2022-11-28T03:24:27.882Z,100.00
2022-11-28T03:27:19.208Z,100.00
2022-11-28T03:30:00.427Z,100.00
2022-11-28T03:32:33.771Z,100.00
2022-11-28T03:35:08.443Z,100.00
2022-11-28T03:37:40.688Z,100.00
2022-11-28T03:40:12.432Z,100.00
2022-11-28T03:42:43.560Z,100.00
2022-11-28T03:45:25.553Z,100.00
2022-11-28T03:48:06.627Z,100.00
2022-11-28T03:50:41.807Z,100.00
2022-11-28T03:53:37.594Z,100.00
2022-11-28T03:56:22.862Z,100.00
2022-11-28T03:58:59.251Z,100.00
2022-11-28T04:01:35.236Z,100.00
2022-11-28T04:04:31.658Z,100.00
2022-11-28T04:07:16.797Z,100.00
2022-11-28T04:10:00.487Z,100.00
2022-11-28T04:12:52.879Z,100.00
2022-11-28T04:15:40.865Z,100.00
2022-11-28T04:18:13.439Z,100.00
2022-11-28T04:20:46.198Z,100.00
2022-11-28T04:23:16.993Z,100.00
2022-11-28T04:25:50.904Z,100.00
2022-11-28T04:28:22.344Z,100.00
2022-11-28T04:30:50.212Z,100.00
2022-11-28T04:33:20.877Z,100.00
2022-11-28T04:35:53.224Z,100.00
2022-11-28T04:38:22.691Z,100.00
2022-11-28T04:41:18.396Z,100.00
2022-11-28T04:43:52.080Z,100.00
2022-11-28T04:46:25.173Z,100.00
2022-11-28T04:48:51.736Z,100.00
2022-11-28T04:51:27.384Z,100.00
2022-11-28T04:54:19.915Z,100.00
2022-11-28T04:57:01.462Z,100.00
2022-11-28T04:59:30.248Z,100.00
2022-11-28T05:01:58.604Z,100.00
2022-11-28T05:04:25.303Z,100.00
2022-11-28T05:07:02.297Z,100.00
2022-11-28T05:09:28.735Z,100.00
2022-11-28T05:11:55.200Z,100.00
2022-11-28T05:14:22.188Z,100.00
2022-11-28T05:16:48.831Z,100.00
2022-11-28T05:19:15.869Z,100.00
2022-11-28T05:21:42.454Z,100.00
2022-11-28T05:24:09.391Z,100.00
2022-11-28T05:26:35.894Z,100.00
2022-11-28T05:29:02.545Z,100.00
2022-11-28T05:31:29.294Z,100.00
2022-11-28T05:33:56.013Z,100.00
2022-11-28T05:36:22.975Z,100.00
2022-11-28T05:38:50.325Z,100.00
2022-11-28T05:41:26.253Z,100.00
2022-11-28T05:43:53.260Z,100.00
2022-11-28T05:46:20.160Z,100.00
2022-11-28T05:48:46.693Z,100.00
2022-11-28T05:51:13.201Z,100.00
2022-11-28T05:53:39.610Z,100.00
2022-11-28T05:56:11.146Z,100.00
2022-11-28T05:58:37.693Z,100.00
2022-11-28T06:01:13.953Z,100.00
2022-11-28T06:03:41.493Z,100.00
2022-11-28T06:06:20.494Z,100.00
2022-11-28T06:08:48.779Z,100.00
2022-11-28T06:11:16.074Z,100.00
2022-11-28T06:13:43.532Z,100.00
2022-11-28T06:16:11.904Z,100.00
2022-11-28T06:18:39.852Z,100.00
2022-11-28T06:21:09.538Z,100.00
2022-11-28T06:23:36.859Z,100.00
2022-11-28T06:26:08.467Z,100.00
2022-11-28T06:28:35.521Z,100.00
2022-11-28T06:31:02.375Z,99.70
2022-11-28T06:33:29.592Z,99.87
2022-11-28T06:36:00.963Z,99.53
2022-11-28T06:38:28.028Z,99.05
2022-11-28T06:40:59.900Z,99.03
2022-11-28T06:43:26.931Z,99.06
2022-11-28T06:45:53.652Z,99.06
2022-11-28T06:48:20.594Z,98.87
2022-11-28T06:50:47.646Z,99.23
2022-11-28T06:53:14.576Z,98.91
2022-11-28T06:55:41.362Z,99.25
2022-11-28T06:58:07.874Z,99.27
2022-11-28T07:00:35.102Z,99.61
2022-11-28T07:03:01.516Z,99.28
2022-11-28T07:05:28.619Z,99.15
2022-11-28T07:07:55.054Z,99.25
2022-11-28T07:10:22.183Z,99.52
2022-11-28T07:12:54.079Z,98.84
2022-11-28T07:15:20.617Z,98.91
2022-11-28T07:17:47.049Z,99.13
2022-11-28T07:20:13.920Z,98.94
2022-11-28T07:22:40.358Z,98.92
2022-11-28T07:25:07.415Z,99.07
2022-11-28T07:27:34.068Z,98.48
2022-11-28T07:30:00.486Z,98.41
2022-11-28T07:32:26.949Z,98.66
2022-11-28T07:34:53.838Z,98.76
2022-11-28T07:37:20.368Z,98.99
2022-11-28T07:39:47.484Z,98.73
2022-11-28T07:42:13.936Z,98.62
2022-11-28T07:44:40.774Z,98.56
2022-11-28T07:47:07.223Z,98.40
2022-11-28T07:49:33.632Z,98.25
2022-11-28T07:52:01.086Z,98.23
2022-11-28T07:54:27.496Z,98.25
2022-11-28T07:59:40.735Z,98.32
2022-11-28T08:02:09.045Z,98.69
2022-11-28T08:04:36.679Z,98.30
2022-11-28T08:07:03.216Z,98.23
2022-11-28T08:09:31.576Z,98.51
2022-11-28T08:11:58.681Z,98.22
2022-11-28T08:14:25.310Z,97.92
2022-11-28T08:16:52.388Z,98.09
2022-11-28T08:19:22.951Z,97.70
2022-11-28T08:21:51.096Z,97.62
2022-11-28T08:24:17.572Z,97.58
2022-11-28T08:26:44.047Z,97.62
2022-11-28T08:29:10.979Z,97.38
2022-11-28T08:31:38.708Z,98.05
2022-11-28T08:34:08.499Z,97.61
2022-11-28T08:36:35.031Z,98.01
2022-11-28T08:39:22.765Z,97.42
2022-11-28T08:41:49.782Z,97.42
2022-11-28T08:44:16.296Z,97.50
2022-11-28T08:46:42.750Z,97.13
2022-11-28T08:49:09.181Z,97.19
2022-11-28T08:51:36.508Z,97.22
2022-11-28T08:54:02.999Z,97.67
2022-11-28T08:56:29.438Z,97.01
2022-11-28T08:58:55.996Z,96.77
2022-11-28T09:01:26.766Z,96.97
2022-11-28T09:03:54.726Z,96.64
2022-11-28T09:06:22.291Z,97.13
2022-11-28T09:08:50.120Z,96.90
2022-11-28T09:11:18.395Z,96.66
2022-11-28T09:13:45.134Z,97.00
2022-11-28T09:16:12.616Z,96.94
2022-11-28T09:18:39.048Z,97.18
2022-11-28T09:21:11.707Z,97.22
2022-11-28T09:23:41.040Z,97.34
2022-11-28T09:26:12.648Z,96.95
2022-11-28T09:28:39.039Z,96.79
2022-11-28T09:31:07.516Z,96.73
2022-11-28T09:33:35.069Z,97.06
2022-11-28T09:36:10.452Z,97.08
2022-11-28T09:38:37.342Z,96.75
2022-11-28T09:41:16.603Z,97.04
2022-11-28T09:43:44.943Z,96.74
2022-11-28T09:46:17.903Z,96.39
2022-11-28T09:48:52.029Z,95.99
2022-11-28T09:51:31.242Z,96.01
2022-11-28T09:54:34.745Z,96.32
2022-11-28T09:57:03.638Z,95.72
2022-11-28T09:59:30.507Z,96.06
2022-11-28T10:02:21.906Z,95.48
2022-11-28T10:04:59.386Z,96.17
2022-11-28T10:07:33.077Z,95.70
2022-11-28T10:10:33.579Z,95.97
2022-11-28T10:13:18.805Z,96.34
2022-11-28T10:16:13.143Z,96.12
2022-11-28T10:18:54.679Z,96.54
2022-11-28T10:21:31.221Z,96.30
2022-11-28T10:24:05.891Z,96.41
2022-11-28T10:26:37.082Z,95.56
2022-11-28T10:29:27.581Z,95.57
2022-11-28T10:31:57.391Z,95.82
2022-11-28T10:34:31.163Z,95.78
2022-11-28T10:37:03.425Z,95.81
2022-11-28T10:39:29.867Z,95.74
2022-11-28T10:42:13.695Z,95.83
2022-11-28T10:44:56.337Z,95.58
2022-11-28T10:47:41.183Z,94.82
2022-11-28T10:50:33.664Z,94.39
2022-11-28T10:53:09.003Z,94.92
2022-11-28T10:55:58.954Z,94.56
2022-11-28T10:58:51.300Z,95.24
2022-11-28T11:01:17.876Z,95.44
2022-11-28T11:03:44.516Z,95.30
2022-11-28T11:06:11.089Z,95.38
2022-11-28T11:08:39.611Z,95.67
2022-11-28T11:11:18.740Z,95.95
2022-11-28T11:14:09.411Z,95.61
2022-11-28T11:16:55.785Z,95.26
2022-11-28T11:19:36.886Z,94.67
2022-11-28T11:22:12.497Z,94.94
2022-11-28T11:24:38.933Z,95.23
2022-11-28T11:27:25.639Z,95.12
2022-11-28T11:29:53.353Z,94.40
2022-11-28T11:32:25.110Z,93.73
2022-11-28T11:34:51.806Z,94.17
2022-11-28T11:37:20.617Z,94.56
2022-11-28T11:39:51.842Z,94.26
2022-11-28T11:42:24.837Z,94.29
2022-11-28T11:44:51.777Z,93.55
2022-11-28T11:47:19.156Z,93.57
2022-11-28T11:49:49.651Z,93.41
2022-11-28T11:52:24.210Z,93.83
2022-11-28T11:54:59.403Z,93.70
2022-11-28T11:57:36.937Z,93.42
2022-11-28T12:00:10.846Z,93.20
2022-11-28T12:02:45.709Z,93.56
2022-11-28T12:05:21.208Z,93.06
2022-11-28T12:07:58.754Z,93.05
2022-11-28T12:10:29.711Z,93.44
2022-11-28T12:12:56.772Z,92.96
2022-11-28T12:15:59.193Z,93.35
2022-11-28T12:18:51.551Z,93.58
2022-11-28T12:22:12.992Z,93.28
2022-11-28T12:24:59.568Z,92.45
2022-11-28T12:27:41.240Z,91.90
2022-11-28T12:30:24.776Z,92.01
2022-11-28T12:33:05.380Z,92.12
2022-11-28T12:35:39.946Z,92.70
2022-11-28T12:38:20.808Z,92.39
2022-11-28T12:41:27.517Z,92.94
2022-11-28T12:44:09.032Z,93.17
2022-11-28T12:46:49.890Z,93.14
2022-11-28T12:49:41.199Z,92.46
2022-11-28T12:52:45.667Z,91.52
2022-11-28T12:55:36.837Z,92.33
2022-11-28T12:58:18.693Z,92.16
2022-11-28T13:01:17.066Z,92.13
2022-11-28T13:04:06.544Z,92.00
2022-11-28T13:06:56.717Z,92.32
2022-11-28T13:09:31.651Z,92.57
2022-11-28T13:12:22.532Z,92.24
2022-11-28T13:14:58.884Z,92.48
2022-11-28T13:17:40.957Z,92.16
2022-11-28T13:20:52.866Z,93.19
2022-11-28T13:23:26.758Z,92.17
2022-11-28T13:26:07.802Z,93.04
2022-11-28T13:28:54.698Z,93.42
2022-11-28T13:32:01.704Z,93.67
2022-11-28T13:34:29.927Z,93.10
2022-11-28T13:40:07.649Z,93.04
2022-11-28T13:43:12.988Z,93.70
2022-11-28T13:45:44.400Z,94.29
2022-11-28T13:48:49.966Z,94.07
2022-11-28T13:51:19.316Z,94.63
2022-11-28T13:53:49.480Z,95.27
2022-11-28T13:56:24.944Z,94.22
2022-11-28T13:59:00.709Z,94.75
2022-11-28T14:01:44.264Z,95.04
2022-11-28T14:04:17.318Z,95.56
2022-11-28T14:06:52.257Z,95.93
2022-11-28T14:09:36.908Z,95.44
2022-11-28T14:12:29.787Z,95.28
2022-11-28T14:15:08.420Z,95.52
2022-11-28T14:17:50.905Z,95.63
2022-11-28T14:20:36.398Z,96.03
2022-11-28T14:23:41.645Z,95.44
2022-11-28T14:26:32.008Z,95.59
2022-11-28T14:28:59.143Z,96.16
2022-11-28T14:31:31.750Z,95.70
2022-11-28T14:34:03.545Z,95.86
2022-11-28T14:36:36.127Z,95.68
2022-11-28T14:39:16.272Z,95.95
2022-11-28T14:42:02.620Z,96.05
2022-11-28T14:44:52.859Z,96.47
2022-11-28T14:47:31.986Z,96.25
2022-11-28T14:50:04.467Z,96.82
2022-11-28T14:52:39.828Z,96.83
2022-11-28T14:55:08.058Z,97.46
2022-11-28T14:57:37.686Z,96.98
2022-11-28T15:00:16.379Z,96.91
2022-11-28T15:03:12.512Z,97.46
2022-11-28T15:05:47.704Z,97.93
2022-11-28T15:08:58.932Z,97.21
2022-11-28T15:11:58.713Z,97.94
2022-11-28T15:14:28.705Z,97.75
2022-11-28T15:17:00.377Z,98.22
2022-11-28T15:19:31.919Z,98.31
2022-11-28T15:22:01.075Z,98.65
2022-11-28T15:24:27.522Z,99.00
2022-11-28T15:26:57.764Z,98.81
2022-11-28T15:29:27.238Z,98.87
2022-11-28T15:31:57.088Z,98.33
2022-11-28T15:34:27.432Z,98.98
2022-11-28T15:36:56.207Z,99.39
2022-11-28T15:39:34.959Z,99.40
2022-11-28T15:42:04.620Z,100.00
2022-11-28T15:44:32.196Z,99.64
2022-11-28T15:46:58.782Z,99.85
2022-11-28T15:49:31.747Z,99.74
2022-11-28T15:52:01.250Z,100.00
2022-11-28T15:54:41.727Z,100.00
2022-11-28T15:57:20.321Z,100.00
2022-11-28T15:59:47.245Z,100.00
2022-11-28T16:02:30.619Z,100.00
2022-11-28T16:05:20.945Z,100.00
2022-11-28T16:07:50.178Z,100.00
2022-11-28T16:10:21.888Z,100.00
2022-11-28T16:12:48.964Z,100.00
2022-11-28T16:15:20.601Z,100.00
2022-11-28T16:17:47.214Z,100.00
2022-11-28T16:20:29.764Z,100.00
2022-11-28T16:22:59.516Z,100.00
2022-11-28T16:25:27.528Z,100.00
2022-11-28T16:27:57.210Z,100.00
2022-11-28T16:30:24.053Z,100.00
2022-11-28T16:32:52.292Z,100.00
2022-11-28T16:35:38.776Z,100.00
2022-11-28T16:38:18.841Z,100.00
2022-11-28T16:40:45.331Z,100.00
2022-11-28T16:43:37.528Z,100.00
2022-11-28T16:46:06.753Z,100.00
2022-11-28T16:48:38.644Z,100.00
2022-11-28T16:51:11.575Z,100.00
2022-11-28T16:53:48.239Z,100.00
2022-11-28T16:56:29.699Z,100.00
2022-11-28T16:59:02.546Z,100.00
2022-11-28T17:01:30.282Z,100.00
2022-11-28T17:03:57.707Z,100.00
2022-11-28T17:06:39.394Z,100.00
2022-11-28T17:09:09.259Z,100.00
2022-11-28T17:11:37.692Z,100.00
2022-11-28T17:14:10.160Z,100.00
2022-11-28T17:16:40.501Z,100.00
2022-11-28T17:19:07.094Z,100.00
2022-11-28T17:21:42.037Z,100.00
2022-11-28T17:24:17.139Z,100.00
2022-11-28T17:26:43.779Z,100.00
2022-11-28T17:29:12.518Z,100.00
2022-11-28T17:31:42.144Z,99.71
2022-11-28T17:34:24.025Z,99.34
2022-11-28T17:36:51.226Z,99.74
2022-11-28T17:39:19.063Z,100.00
2022-11-28T17:41:46.923Z,99.46
2022-11-28T17:44:24.891Z,99.32
2022-11-28T17:46:52.820Z,99.84
2022-11-28T17:49:20.123Z,99.16
2022-11-28T17:51:48.600Z,99.75
2022-11-28T17:54:17.746Z,99.26
2022-11-28T17:56:54.296Z,98.88
2022-11-28T17:59:23.674Z,99.61
2022-11-28T18:01:50.510Z,98.93
2022-11-28T18:04:22.996Z,99.13
2022-11-28T18:06:49.781Z,99.26
2022-11-28T18:09:16.340Z,99.91
2022-11-28T18:11:43.543Z,99.39
2022-11-28T18:14:10.171Z,99.57
2022-11-28T18:16:39.554Z,100.00
2022-11-28T18:19:06.301Z,99.63
2022-11-28T18:21:33.024Z,99.23
2022-11-28T18:23:59.580Z,99.39
2022-11-28T18:26:26.492Z,99.54
2022-11-28T18:28:53.982Z,99.56
2022-11-28T18:31:23.445Z,99.00
2022-11-28T18:33:50.146Z,98.37
2022-11-28T18:36:22.604Z,98.98
2022-11-28T18:38:49.146Z,99.30
2022-11-28T18:41:17.648Z,98.31
2022-11-28T18:43:45.157Z,98.76
2022-11-28T18:46:19.050Z,99.00
2022-11-28T18:48:47.185Z,98.62
2022-11-28T18:51:18.135Z,98.49
2022-11-28T18:53:45.451Z,97.86
2022-11-28T18:56:13.179Z,98.28
2022-11-28T18:58:42.362Z,97.58
2022-11-28T19:01:15.039Z,97.54
2022-11-28T19:03:42.567Z,97.91
2022-11-28T19:06:12.052Z,98.27
2022-11-28T19:08:39.422Z,97.95
2022-11-28T19:11:09.609Z,97.44
2022-11-28T19:13:37.054Z,97.55
2022-11-28T19:16:07.832Z,98.02
2022-11-28T19:18:36.088Z,97.67
2022-11-28T19:21:06.823Z,97.80
2022-11-28T19:23:33.985Z,97.83
2022-11-28T19:26:04.908Z,97.36
2022-11-28T19:28:31.435Z,97.70
2022-11-28T19:31:08.116Z,97.79
2022-11-28T19:33:35.037Z,97.02
2022-11-28T19:36:06.916Z,98.02
2022-11-28T19:38:34.811Z,97.24
2022-11-28T19:41:12.372Z,97.48
2022-11-28T19:43:39.002Z,97.68
2022-11-28T19:46:06.212Z,97.82
2022-11-28T19:48:35.201Z,97.57
2022-11-28T19:51:03.811Z,97.38
2022-11-28T19:53:32.216Z,97.28
2022-11-28T19:56:03.502Z,97.30
2022-11-28T19:58:31.535Z,96.82
2022-11-28T20:01:10.439Z,97.55
2022-11-28T20:03:38.616Z,97.80
2022-11-28T20:06:20.352Z,97.36
2022-11-28T20:08:48.886Z,97.33
2022-11-28T20:11:23.623Z,97.81
2022-11-28T20:13:55.293Z,97.46
2022-11-28T20:16:21.876Z,97.83
2022-11-28T20:18:48.400Z,97.54
2022-11-28T20:21:17.792Z,98.03
2022-11-28T20:23:55.821Z,98.06
2022-11-28T20:26:26.186Z,97.82
2022-11-28T20:28:55.580Z,97.73
2022-11-28T20:31:36.412Z,97.82
2022-11-28T20:34:05.994Z,97.81
2022-11-28T20:36:34.224Z,98.65
2022-11-28T20:39:01.106Z,98.50
2022-11-28T20:41:28.724Z,97.71
2022-11-28T20:43:56.098Z,98.13
2022-11-28T20:46:27.056Z,98.29
2022-11-28T20:48:53.975Z,98.90
2022-11-28T20:51:24.759Z,98.77
2022-11-28T20:53:52.189Z,98.41
2022-11-28T20:56:21.544Z,98.11
2022-11-28T20:58:48.751Z,98.45
2022-11-28T21:01:17.936Z,98.44
2022-11-28T21:03:44.475Z,98.52
2022-11-28T21:06:11.133Z,98.27
2022-11-28T21:08:37.577Z,98.25
2022-11-28T21:11:25.600Z,98.26
2022-11-28T21:13:57.722Z,99.00
2022-11-28T21:16:29.144Z,99.47
2022-11-28T21:18:56.832Z,99.21
2022-11-28T21:21:26.631Z,98.57
2022-11-28T21:23:57.873Z,99.34
2022-11-28T21:26:30.251Z,98.94
2022-11-28T21:29:00.371Z,98.57
2022-11-28T21:31:30.068Z,99.01
2022-11-28T21:33:58.162Z,98.18
2022-11-28T21:36:25.433Z,98.95
2022-11-28T21:38:54.134Z,98.37
2022-11-28T21:41:21.854Z,98.55
2022-11-28T21:43:49.409Z,98.42
2022-11-28T21:46:15.955Z,98.78
2022-11-28T21:48:43.085Z,98.49
2022-11-28T21:51:18.892Z,97.48
2022-11-28T21:53:45.616Z,98.44
2022-11-28T21:56:12.562Z,97.43
2022-11-28T21:58:39.107Z,97.62
2022-11-28T22:01:11.607Z,97.70
2022-11-28T22:03:38.928Z,98.14
2022-11-28T22:06:08.732Z,98.02
2022-11-28T22:08:35.753Z,97.98
2022-11-28T22:11:08.490Z,97.35
2022-11-28T22:13:35.800Z,97.76
2022-11-28T22:16:12.231Z,98.01
2022-11-28T22:18:38.692Z,97.54
2022-11-28T22:21:22.575Z,98.11
2022-11-28T22:23:53.718Z,97.57
2022-11-28T22:26:20.605Z,98.38
2022-11-28T22:28:53.199Z,97.45
2022-11-28T22:31:20.438Z,97.98
2022-11-28T22:33:49.491Z,98.56
2022-11-28T22:36:18.811Z,98.00
2022-11-28T22:38:47.304Z,97.75
2022-11-28T22:41:24.792Z,97.35
2022-11-28T22:43:56.437Z,97.28
2022-11-28T22:46:23.225Z,97.34
2022-11-28T22:48:51.705Z,97.60
2022-11-28T22:51:21.152Z,98.07
2022-11-28T22:53:47.630Z,97.63
2022-11-28T22:56:15.489Z,97.53
2022-11-28T22:58:44.323Z,96.84
2022-11-28T23:01:14.096Z,97.27
2022-11-28T23:03:40.843Z,97.60
2022-11-28T23:06:10.424Z,97.86
2022-11-28T23:08:37.231Z,98.26
2022-11-28T23:11:09.130Z,97.29
2022-11-28T23:13:36.447Z,97.87
2022-11-28T23:16:13.091Z,97.31
2022-11-28T23:18:40.132Z,97.95
2022-11-28T23:21:07.553Z,97.69
2022-11-28T23:23:34.964Z,97.27
2022-11-28T23:26:11.116Z,98.25
2022-11-28T23:28:38.136Z,97.79
2022-11-28T23:31:22.807Z,97.92
2022-11-28T23:33:49.635Z,98.23
2022-11-28T23:36:17.372Z,97.88
2022-11-28T23:38:45.088Z,98.26
2022-11-28T23:41:11.971Z,97.98
2022-11-28T23:43:38.914Z,98.73
2022-11-28T23:46:05.582Z,98.29
2022-11-28T23:48:32.978Z,98.61
2022-11-28T23:50:59.506Z,98.33
2022-11-28T23:53:26.240Z,97.86
2022-11-28T23:55:52.684Z,97.88
2022-11-28T23:58:19.293Z,98.01
